Details From EDDM - Muenchen Franz-josef Strauss
To LXGB - Gibraltar
Flight Number -
Tags Generated
Created
Modified
Stats Distance 1,058 nm / 1,960 km
Max Altitude 0 ft / 0 m
Waypoints 6
Social Downloads 0
Likes 0
Share VATSIM

Download

Looking for another format? Having issues loading an existing format? Contact us
Advertisement - Login to hide

Notes

Generated

Route

EDDM GIGUS SAL MOTIL BRIKE LXGB

ID Type Via Altitude Latitude Longitude Leg Dist Tot Dist Heading (true) Name
O EDDM APT - 0 ft / 0 m 48.34069˚ 11.75108˚ - 0 nm - -
GIGUS FIX - 0 ft / 0 m 45.38972˚ 6.44167˚ 280 nm 280 nm 233° / 229° -
SAL NDB - 0 ft / 0 m 42.44583˚ 2.01500˚ 260 nm 541 nm 229° / 226° Sainte Leocadie NDB
MOTIL FIX - 0 ft / 0 m 39.53879˚ -1.74519˚ 243 nm 785 nm 226° / 223° -
BRIKE FIX - 0 ft / 0 m 36.50478˚ -5.41645˚ 251 nm 1037 nm 225° / 223° -
O LXGB APT - 0 ft / 0 m 36.15080˚ -5.35977˚ 21 nm 1058 nm 173° / 173° -

Altitude Profile

Advertisement - Login to hide

Weather


0- 5 10 15 20 25 30 35+ Temperature / ° C

Clouds and Precipitation
Forecast for 2018-05-23 06:00 UTC. Updated 2 hours ago

Ground ~20,000 ft ~40,000 ft Winds

EDDM

Details ICAO EDDM (MUC)
Name Muenchen Franz-Josef Strauss
Region Germany - Civil
Timezone Europe/Berlin (UTC+2.0)
Stats Elevation 1,487 ft / 453 m (AMSL)
Location 48.353786° 11.786117°
Runways 2
Magnetic Variation 3.214° E

METAR

EDDM 230720Z 27005KT 210V300 CAVOK 17/13 Q1017 NOSIG

Decode

TAF

TAF EDDM 230500Z 2306/2412 25004KT CAVOK BECMG 2309/2311 03005KT PROB30 TEMPO 2316/2321 TSRA BKN030CB BECMG 2318/2320 VRB03KT PROB40 TEMPO 2400/2412 SHRA BKN035CB PROB30 TEMPO 2403/2412 4000 TSRA BKN030CB TEMPO 2403/2408 BKN008 TEMPO 2408/2410 BKN012

Decode

Departure Runways

ID Width Length Bearing (true) Bearing (mag) Surface Threshold Offset Overrun Length
08L 197 ft / 60 m 13,086 ft / 3,989 m 83.38° 80.17° Concrete 0 ft / 0 m 0 ft / 0 m
08R 197 ft / 60 m 13,086 ft / 3,989 m 83.37° 80.16° Concrete 0 ft / 0 m 0 ft / 0 m
26L 197 ft / 60 m 13,086 ft / 3,989 m 263.41° 260.20° Concrete 0 ft / 0 m 0 ft / 0 m
26R 197 ft / 60 m 13,086 ft / 3,989 m 263.42° 260.21° Concrete 0 ft / 0 m 0 ft / 0 m

LXGB

Details ICAO LXGB (GIB)
Name Gibraltar
Region Gibralter
Timezone Europe/Gibraltar (UTC+2.0)
Stats Elevation 15 ft / 5 m (AMSL)
Location 36.151209° -5.349664°
Runways 1
Magnetic Variation 1.073° W

METAR

LXGB 230650Z 06004KT 9999 -RA SCT006 SCT036 BKN110 17/14 Q1015 BECMG FEW007

Decode

TAF

Not found

Destination Runways

ID Width Length Bearing (true) Bearing (mag) Surface Threshold Offset Overrun Length
27 151 ft / 46 m 5,992 ft / 1,826 m 267.56° 268.63° Asphalt 367 ft / 112 m 89 ft / 27 m
9 151 ft / 46 m 5,992 ft / 1,826 m 87.54° 88.61° Asphalt 299 ft / 91 m 52 ft / 16 m

Popular Alternatives